Aviation Digital Data Service (ADDS)

Output produced by METARs form (2105 UTC 06 December 2019)
found at http://www.aviationweather.gov/metar/data/
 
METAR text: VEGT 062100Z 00000KT 2000 BR FEW018 SCT100 16/15 Q1019 NOSIG
Conditions at: VEGT (GAUHATI (IN-AFB), IN) observed 2100 UTC 06 December 2019
Temperature: 16.0°C (61°F)
Dewpoint: 15.0°C (59°F) [RH = 94%]
Pressure (altimeter): 30.09 inches Hg (1019.0 mb)
Winds: calm
Visibility: 1.24 miles (2.00 km)
Ceiling: at least 12,000 feet AGL
Clouds: few clouds at 1800 feet AGL
scattered clouds at 10000 feet AGL
Weather: BR  (mist)

METAR text: VEGT 062000Z 00000KT 2500 BR FEW018 SCT100 16/15 Q1020 NOSIG
Conditions at: VEGT (GAUHATI (IN-AFB), IN) observed 2000 UTC 06 December 2019
Temperature: 16.0°C (61°F)
Dewpoint: 15.0°C (59°F) [RH = 94%]
Pressure (altimeter): 30.12 inches Hg (1020.0 mb)
Winds: calm
Visibility: 1.55 miles (2.49 km)
Ceiling: at least 12,000 feet AGL
Clouds: few clouds at 1800 feet AGL
scattered clouds at 10000 feet AGL
Weather: BR  (mist)

METAR text: VEGT 061930Z 00000KT 2500 BR FEW018 SCT100 16/15 Q1020 NOSIG
Conditions at: VEGT (GAUHATI (IN-AFB), IN) observed 1930 UTC 06 December 2019
Temperature: 16.0°C (61°F)
Dewpoint: 15.0°C (59°F) [RH = 94%]
Pressure (altimeter): 30.12 inches Hg (1020.0 mb)
Winds: calm
Visibility: 1.55 miles (2.49 km)
Ceiling: at least 12,000 feet AGL
Clouds: few clouds at 1800 feet AGL
scattered clouds at 10000 feet AGL
Weather: BR  (mist)

METAR text: VEGT 061900Z 00000KT 2500 BR FEW018 SCT100 16/15 Q1020 NOSIG
Conditions at: VEGT (GAUHATI (IN-AFB), IN) observed 1900 UTC 06 December 2019
Temperature: 16.0°C (61°F)
Dewpoint: 15.0°C (59°F) [RH = 94%]
Pressure (altimeter): 30.12 inches Hg (1020.0 mb)
Winds: calm
Visibility: 1.55 miles (2.49 km)
Ceiling: at least 12,000 feet AGL
Clouds: few clouds at 1800 feet AGL
scattered clouds at 10000 feet AGL
Weather: BR  (mist)

METAR text: VEGT 061830Z 00000KT 2500 BR FEW018 SCT100 17/16 Q1020 NOSIG
Conditions at: VEGT (GAUHATI (IN-AFB), IN) observed 1830 UTC 06 December 2019
Temperature: 17.0°C (63°F)
Dewpoint: 16.0°C (61°F) [RH = 94%]
Pressure (altimeter): 30.12 inches Hg (1020.0 mb)
Winds: calm
Visibility: 1.55 miles (2.49 km)
Ceiling: at least 12,000 feet AGL
Clouds: few clouds at 1800 feet AGL
scattered clouds at 10000 feet AGL
Weather: BR  (mist)

METAR text: VEGT 061800Z 00000KT 2500 BR FEW018 SCT100 17/16 Q1020 NOSIG
Conditions at: VEGT (GAUHATI (IN-AFB), IN) observed 1800 UTC 06 December 2019
Temperature: 17.0°C (63°F)
Dewpoint: 16.0°C (61°F) [RH = 94%]
Pressure (altimeter): 30.12 inches Hg (1020.0 mb)
Winds: calm
Visibility: 1.55 miles (2.49 km)
Ceiling: at least 12,000 feet AGL
Clouds: few clouds at 1800 feet AGL
scattered clouds at 10000 feet AGL
Weather: BR  (mist)

METAR text: VEGT 061730Z 00000KT 2500 BR FEW018 SCT100 17/16 Q1020 NOSIG
Conditions at: VEGT (GAUHATI (IN-AFB), IN) observed 1730 UTC 06 December 2019
Temperature: 17.0°C (63°F)
Dewpoint: 16.0°C (61°F) [RH = 94%]
Pressure (altimeter): 30.12 inches Hg (1020.0 mb)
Winds: calm
Visibility: 1.55 miles (2.49 km)
Ceiling: at least 12,000 feet AGL
Clouds: few clouds at 1800 feet AGL
scattered clouds at 10000 feet AGL
Weather: BR  (mist)

METAR text: VEGT 061700Z 00000KT 2500 BR FEW018 SCT100 17/16 Q1020 NOSIG
Conditions at: VEGT (GAUHATI (IN-AFB), IN) observed 1700 UTC 06 December 2019
Temperature: 17.0°C (63°F)
Dewpoint: 16.0°C (61°F) [RH = 94%]
Pressure (altimeter): 30.12 inches Hg (1020.0 mb)
Winds: calm
Visibility: 1.55 miles (2.49 km)
Ceiling: at least 12,000 feet AGL
Clouds: few clouds at 1800 feet AGL
scattered clouds at 10000 feet AGL
Weather: BR  (mist)

METAR text: VEGT 061630Z 00000KT 2500 BR FEW018 SCT100 18/16 Q1020 NOSIG
Conditions at: VEGT (GAUHATI (IN-AFB), IN) observed 1630 UTC 06 December 2019
Temperature: 18.0°C (64°F)
Dewpoint: 16.0°C (61°F) [RH = 88%]
Pressure (altimeter): 30.12 inches Hg (1020.0 mb)
Winds: calm
Visibility: 1.55 miles (2.49 km)
Ceiling: at least 12,000 feet AGL
Clouds: few clouds at 1800 feet AGL
scattered clouds at 10000 feet AGL
Weather: BR  (mist)

METAR text: VEGT 061600Z 00000KT 3000 BR FEW018 SCT100 18/16 Q1020 BECMG 1500 BR
Conditions at: VEGT (GAUHATI (IN-AFB), IN) observed 1600 UTC 06 December 2019
Temperature: 18.0°C (64°F)
Dewpoint: 16.0°C (61°F) [RH = 88%]
Pressure (altimeter): 30.12 inches Hg (1020.0 mb)
Winds: calm
Visibility: 1.86 miles (2.99 km)
Ceiling: at least 12,000 feet AGL
Clouds: few clouds at 1800 feet AGL
scattered clouds at 10000 feet AGL
Weather: BR  (mist)

METAR text: VEGT 061530Z 00000KT 3000 BR FEW020 SCT100 18/16 Q1020 NOSIG
Conditions at: VEGT (GAUHATI (IN-AFB), IN) observed 1530 UTC 06 December 2019
Temperature: 18.0°C (64°F)
Dewpoint: 16.0°C (61°F) [RH = 88%]
Pressure (altimeter): 30.12 inches Hg (1020.0 mb)
Winds: calm
Visibility: 1.86 miles (2.99 km)
Ceiling: at least 12,000 feet AGL
Clouds: few clouds at 2000 feet AGL
scattered clouds at 10000 feet AGL
Weather: BR  (mist)

METAR text: VEGT 061500Z 00000KT 3000 BR FEW020 SCT100 18/16 Q1020 NOSIG
Conditions at: VEGT (GAUHATI (IN-AFB), IN) observed 1500 UTC 06 December 2019
Temperature: 18.0°C (64°F)
Dewpoint: 16.0°C (61°F) [RH = 88%]
Pressure (altimeter): 30.12 inches Hg (1020.0 mb)
Winds: calm
Visibility: 1.86 miles (2.99 km)
Ceiling: at least 12,000 feet AGL
Clouds: few clouds at 2000 feet AGL
scattered clouds at 10000 feet AGL
Weather: BR  (mist)

METAR text: VEGT 061430Z 00000KT 3000 BR FEW020 SCT100 19/16 Q1019 NOSIG
Conditions at: VEGT (GAUHATI (IN-AFB), IN) observed 1430 UTC 06 December 2019
Temperature: 19.0°C (66°F)
Dewpoint: 16.0°C (61°F) [RH = 83%]
Pressure (altimeter): 30.09 inches Hg (1019.0 mb)
Winds: calm
Visibility: 1.86 miles (2.99 km)
Ceiling: at least 12,000 feet AGL
Clouds: few clouds at 2000 feet AGL
scattered clouds at 10000 feet AGL
Weather: BR  (mist)

METAR text: VEGT 061400Z 00000KT 3000 BR FEW020 SCT100 19/16 Q1019 NOSIG
Conditions at: VEGT (GAUHATI (IN-AFB), IN) observed 1400 UTC 06 December 2019
Temperature: 19.0°C (66°F)
Dewpoint: 16.0°C (61°F) [RH = 83%]
Pressure (altimeter): 30.09 inches Hg (1019.0 mb)
Winds: calm
Visibility: 1.86 miles (2.99 km)
Ceiling: at least 12,000 feet AGL
Clouds: few clouds at 2000 feet AGL
scattered clouds at 10000 feet AGL
Weather: BR  (mist)

METAR text: VEGT 061330Z 00000KT 3000 BR FEW020 SCT100 19/16 Q1019 NOSIG
Conditions at: VEGT (GAUHATI (IN-AFB), IN) observed 1330 UTC 06 December 2019
Temperature: 19.0°C (66°F)
Dewpoint: 16.0°C (61°F) [RH = 83%]
Pressure (altimeter): 30.09 inches Hg (1019.0 mb)
Winds: calm
Visibility: 1.86 miles (2.99 km)
Ceiling: at least 12,000 feet AGL
Clouds: few clouds at 2000 feet AGL
scattered clouds at 10000 feet AGL
Weather: BR  (mist)

METAR text: VEGT 061300Z 00000KT 3000 BR FEW020 SCT100 20/17 Q1019 NOSIG
Conditions at: VEGT (GAUHATI (IN-AFB), IN) observed 1300 UTC 06 December 2019
Temperature: 20.0°C (68°F)
Dewpoint: 17.0°C (63°F) [RH = 83%]
Pressure (altimeter): 30.09 inches Hg (1019.0 mb)
Winds: calm
Visibility: 1.86 miles (2.99 km)
Ceiling: at least 12,000 feet AGL
Clouds: few clouds at 2000 feet AGL
scattered clouds at 10000 feet AGL
Weather: BR  (mist)

METAR text: VEGT 061230Z 00000KT 3000 BR FEW020 SCT100 21/17 Q1019 NOSIG
Conditions at: VEGT (GAUHATI (IN-AFB), IN) observed 1230 UTC 06 December 2019
Temperature: 21.0°C (70°F)
Dewpoint: 17.0°C (63°F) [RH = 78%]
Pressure (altimeter): 30.09 inches Hg (1019.0 mb)
Winds: calm
Visibility: 1.86 miles (2.99 km)
Ceiling: at least 12,000 feet AGL
Clouds: few clouds at 2000 feet AGL
scattered clouds at 10000 feet AGL
Weather: BR  (mist)

METAR text: VEGT 061200Z 00000KT 3500 HZ SCT020 BKN100 21/17 Q1018 NOSIG
Conditions at: VEGT (GAUHATI (IN-AFB), IN) observed 1200 UTC 06 December 2019
Temperature: 21.0°C (70°F)
Dewpoint: 17.0°C (63°F) [RH = 78%]
Pressure (altimeter): 30.06 inches Hg (1018.0 mb)
Winds: calm
Visibility: 2.17 miles (3.49 km)
Ceiling: 10000 feet AGL
Clouds: scattered clouds at 2000 feet AGL
broken clouds at 10000 feet AGL
Weather: HZ  (haze)

METAR text: VEGT 061130Z 00000KT 4000 HZ SCT020 BKN100 22/16 Q1018 NOSIG
Conditions at: VEGT (GAUHATI (IN-AFB), IN) observed 1130 UTC 06 December 2019
Temperature: 22.0°C (72°F)
Dewpoint: 16.0°C (61°F) [RH = 69%]
Pressure (altimeter): 30.06 inches Hg (1018.0 mb)
Winds: calm
Visibility: 2.49 miles (4.01 km)
Ceiling: 10000 feet AGL
Clouds: scattered clouds at 2000 feet AGL
broken clouds at 10000 feet AGL
Weather: HZ  (haze)

METAR text: VEGT 061100Z 00000KT 4500 HZ SCT020 BKN100 23/16 Q1018 BECMG 3000 BR
Conditions at: VEGT (GAUHATI (IN-AFB), IN) observed 1100 UTC 06 December 2019
Temperature: 23.0°C (73°F)
Dewpoint: 16.0°C (61°F) [RH = 65%]
Pressure (altimeter): 30.06 inches Hg (1018.0 mb)
Winds: calm
Visibility: 2.80 miles (4.51 km)
Ceiling: 10000 feet AGL
Clouds: scattered clouds at 2000 feet AGL
broken clouds at 10000 feet AGL
Weather: HZ  (haze)

METAR text: VEGT 061030Z 07003KT 5000 HZ SCT020 BKN100 24/16 Q1018 NOSIG
Conditions at: VEGT (GAUHATI (IN-AFB), IN) observed 1030 UTC 06 December 2019
Temperature: 24.0°C (75°F)
Dewpoint: 16.0°C (61°F) [RH = 61%]
Pressure (altimeter): 30.06 inches Hg (1018.0 mb)
Winds: from the ENE (70 degrees) at 3 MPH (3 knots; 1.5 m/s)
Visibility: 3 miles ( 5 km)
Ceiling: 10000 feet AGL
Clouds: scattered clouds at 2000 feet AGL
broken clouds at 10000 feet AGL
Weather: HZ  (haze)

METAR text: VEGT 061000Z 02004KT 5000 HZ FEW020 SCT100 24/16 Q1017 NOSIG
Conditions at: VEGT (GAUHATI (IN-AFB), IN) observed 1000 UTC 06 December 2019
Temperature: 24.0°C (75°F)
Dewpoint: 16.0°C (61°F) [RH = 61%]
Pressure (altimeter): 30.03 inches Hg (1017.0 mb)
Winds: from the NNE (20 degrees) at 5 MPH (4 knots; 2.1 m/s)
Visibility: 3 miles ( 5 km)
Ceiling: at least 12,000 feet AGL
Clouds: few clouds at 2000 feet AGL
scattered clouds at 10000 feet AGL
Weather: HZ  (haze)

METAR text: VEGT 060930Z 01007KT 5000 HZ FEW020 SCT100 25/16 Q1017 NOSIG
Conditions at: VEGT (GAUHATI (IN-AFB), IN) observed 0930 UTC 06 December 2019
Temperature: 25.0°C (77°F)
Dewpoint: 16.0°C (61°F) [RH = 57%]
Pressure (altimeter): 30.03 inches Hg (1017.0 mb)
Winds: from the N (10 degrees) at 8 MPH (7 knots; 3.6 m/s)
Visibility: 3 miles ( 5 km)
Ceiling: at least 12,000 feet AGL
Clouds: few clouds at 2000 feet AGL
scattered clouds at 10000 feet AGL
Weather: HZ  (haze)

METAR text: VEGT 060900Z 03008KT 5000 HZ FEW020 SCT100 25/17 Q1017 NOSIG
Conditions at: VEGT (GAUHATI (IN-AFB), IN) observed 0900 UTC 06 December 2019
Temperature: 25.0°C (77°F)
Dewpoint: 17.0°C (63°F) [RH = 61%]
Pressure (altimeter): 30.03 inches Hg (1017.0 mb)
Winds: from the NNE (30 degrees) at 9 MPH (8 knots; 4.1 m/s)
Visibility: 3 miles ( 5 km)
Ceiling: at least 12,000 feet AGL
Clouds: few clouds at 2000 feet AGL
scattered clouds at 10000 feet AGL
Weather: HZ  (haze)

METAR text: VEGT 060830Z 03005KT 4500 HZ FEW020 SCT100 25/17 Q1018 NOSIG
Conditions at: VEGT (GAUHATI (IN-AFB), IN) observed 0830 UTC 06 December 2019
Temperature: 25.0°C (77°F)
Dewpoint: 17.0°C (63°F) [RH = 61%]
Pressure (altimeter): 30.06 inches Hg (1018.0 mb)
Winds: from the NNE (30 degrees) at 6 MPH (5 knots; 2.6 m/s)
Visibility: 2.80 miles (4.51 km)
Ceiling: at least 12,000 feet AGL
Clouds: few clouds at 2000 feet AGL
scattered clouds at 10000 feet AGL
Weather: HZ  (haze)

METAR text: VEGT 060800Z 03008KT 4500 HZ FEW020 26/18 Q1018 NOSIG
Conditions at: VEGT (GAUHATI (IN-AFB), IN) observed 0800 UTC 06 December 2019
Temperature: 26.0°C (79°F)
Dewpoint: 18.0°C (64°F) [RH = 61%]
Pressure (altimeter): 30.06 inches Hg (1018.0 mb)
Winds: from the NNE (30 degrees) at 9 MPH (8 knots; 4.1 m/s)
Visibility: 2.80 miles (4.51 km)
Ceiling: at least 12,000 feet AGL
Clouds: few clouds at 2000 feet AGL
Weather: HZ  (haze)

METAR text: VEGT 060730Z 01008KT 4000 HZ FEW020 26/18 Q1018 NOSIG
Conditions at: VEGT (GAUHATI (IN-AFB), IN) observed 0730 UTC 06 December 2019
Temperature: 26.0°C (79°F)
Dewpoint: 18.0°C (64°F) [RH = 61%]
Pressure (altimeter): 30.06 inches Hg (1018.0 mb)
Winds: from the N (10 degrees) at 9 MPH (8 knots; 4.1 m/s)
Visibility: 2.49 miles (4.01 km)
Ceiling: at least 12,000 feet AGL
Clouds: few clouds at 2000 feet AGL
Weather: HZ  (haze)

METAR text: VEGT 060700Z 01008KT 3500 HZ FEW020 25/18 Q1019 BECMG 5000 HZ
Conditions at: VEGT (GAUHATI (IN-AFB), IN) observed 0700 UTC 06 December 2019
Temperature: 25.0°C (77°F)
Dewpoint: 18.0°C (64°F) [RH = 65%]
Pressure (altimeter): 30.09 inches Hg (1019.0 mb)
Winds: from the N (10 degrees) at 9 MPH (8 knots; 4.1 m/s)
Visibility: 2.17 miles (3.49 km)
Ceiling: at least 12,000 feet AGL
Clouds: few clouds at 2000 feet AGL
Weather: HZ  (haze)

METAR text: VEGT 060630Z 02006KT 3500 HZ FEW020 25/19 Q1019 NOSIG
Conditions at: VEGT (GAUHATI (IN-AFB), IN) observed 0630 UTC 06 December 2019
Temperature: 25.0°C (77°F)
Dewpoint: 19.0°C (66°F) [RH = 69%]
Pressure (altimeter): 30.09 inches Hg (1019.0 mb)
Winds: from the NNE (20 degrees) at 7 MPH (6 knots; 3.1 m/s)
Visibility: 2.17 miles (3.49 km)
Ceiling: at least 12,000 feet AGL
Clouds: few clouds at 2000 feet AGL
Weather: HZ  (haze)

METAR text: VEGT 060600Z 05006KT 3000 HZ FEW020 25/19 Q1020 NOSIG
Conditions at: VEGT (GAUHATI (IN-AFB), IN) observed 0600 UTC 06 December 2019
Temperature: 25.0°C (77°F)
Dewpoint: 19.0°C (66°F) [RH = 69%]
Pressure (altimeter): 30.12 inches Hg (1020.0 mb)
Winds: from the NE (50 degrees) at 7 MPH (6 knots; 3.1 m/s)
Visibility: 1.86 miles (2.99 km)
Ceiling: at least 12,000 feet AGL
Clouds: few clouds at 2000 feet AGL
Weather: HZ  (haze)

METAR text: VEGT 060530Z 04005KT 3000 BR FEW020 24/20 Q1021 NOSIG
Conditions at: VEGT (GAUHATI (IN-AFB), IN) observed 0530 UTC 06 December 2019
Temperature: 24.0°C (75°F)
Dewpoint: 20.0°C (68°F) [RH = 78%]
Pressure (altimeter): 30.15 inches Hg (1021.0 mb)
Winds: from the NE (40 degrees) at 6 MPH (5 knots; 2.6 m/s)
Visibility: 1.86 miles (2.99 km)
Ceiling: at least 12,000 feet AGL
Clouds: few clouds at 2000 feet AGL
Weather: BR  (mist)

METAR text: VEGT 060500Z 03004KT 2500 BR FEW018 23/19 Q1021 BECMG 3000 BR
Conditions at: VEGT (GAUHATI (IN-AFB), IN) observed 0500 UTC 06 December 2019
Temperature: 23.0°C (73°F)
Dewpoint: 19.0°C (66°F) [RH = 78%]
Pressure (altimeter): 30.15 inches Hg (1021.0 mb)
Winds: from the NNE (30 degrees) at 5 MPH (4 knots; 2.1 m/s)
Visibility: 1.55 miles (2.49 km)
Ceiling: at least 12,000 feet AGL
Clouds: few clouds at 1800 feet AGL
Weather: BR  (mist)

METAR text: VEGT 060430Z 03004KT 2500 BR FEW018 22/19 Q1022 NOSIG
Conditions at: VEGT (GAUHATI (IN-AFB), IN) observed 0430 UTC 06 December 2019
Temperature: 22.0°C (72°F)
Dewpoint: 19.0°C (66°F) [RH = 83%]
Pressure (altimeter): 30.18 inches Hg (1022.0 mb)
Winds: from the NNE (30 degrees) at 5 MPH (4 knots; 2.1 m/s)
Visibility: 1.55 miles (2.49 km)
Ceiling: at least 12,000 feet AGL
Clouds: few clouds at 1800 feet AGL
Weather: BR  (mist)

METAR text: VEGT 060400Z 02003KT 2500 BR FEW018 21/19 Q1022 NOSIG
Conditions at: VEGT (GAUHATI (IN-AFB), IN) observed 0400 UTC 06 December 2019
Temperature: 21.0°C (70°F)
Dewpoint: 19.0°C (66°F) [RH = 88%]
Pressure (altimeter): 30.18 inches Hg (1022.0 mb)
Winds: from the NNE (20 degrees) at 3 MPH (3 knots; 1.5 m/s)
Visibility: 1.55 miles (2.49 km)
Ceiling: at least 12,000 feet AGL
Clouds: few clouds at 1800 feet AGL
Weather: BR  (mist)

METAR text: VEGT 060330Z 05005KT 2500 BR FEW018 20/18 Q1023 NOSIG
Conditions at: VEGT (GAUHATI (IN-AFB), IN) observed 0330 UTC 06 December 2019
Temperature: 20.0°C (68°F)
Dewpoint: 18.0°C (64°F) [RH = 88%]
Pressure (altimeter): 30.21 inches Hg (1023.0 mb)
Winds: from the NE (50 degrees) at 6 MPH (5 knots; 2.6 m/s)
Visibility: 1.55 miles (2.49 km)
Ceiling: at least 12,000 feet AGL
Clouds: few clouds at 1800 feet AGL
Weather: BR  (mist)

METAR text: VEGT 060300Z 05004KT 2000 BR FEW018 19/18 Q1023 NOSIG
Conditions at: VEGT (GAUHATI (IN-AFB), IN) observed 0300 UTC 06 December 2019
Temperature: 19.0°C (66°F)
Dewpoint: 18.0°C (64°F) [RH = 94%]
Pressure (altimeter): 30.21 inches Hg (1023.0 mb)
Winds: from the NE (50 degrees) at 5 MPH (4 knots; 2.1 m/s)
Visibility: 1.24 miles (2.00 km)
Ceiling: at least 12,000 feet AGL
Clouds: few clouds at 1800 feet AGL
Weather: BR  (mist)

METAR text: VEGT 060230Z 00000KT 1800 BR FEW018 18/17 Q1022 NOSIG
Conditions at: VEGT (GAUHATI (IN-AFB), IN) observed 0230 UTC 06 December 2019
Temperature: 18.0°C (64°F)
Dewpoint: 17.0°C (63°F) [RH = 94%]
Pressure (altimeter): 30.18 inches Hg (1022.0 mb)
Winds: calm
Visibility: 1.12 miles (1.80 km)
Ceiling: at least 12,000 feet AGL
Clouds: few clouds at 1800 feet AGL
Weather: BR  (mist)

METAR text: VEGT 060200Z 00000KT 1500 BR FEW018 SCT100 16/16 Q1022 BECMG 3000 BR
Conditions at: VEGT (GAUHATI (IN-AFB), IN) observed 0200 UTC 06 December 2019
Temperature: 16.0°C (61°F)
Dewpoint: 16.0°C (61°F) [RH = 100%]
Pressure (altimeter): 30.18 inches Hg (1022.0 mb)
Winds: calm
Visibility: 0.93 miles (1.50 km)
Ceiling: at least 12,000 feet AGL
Clouds: few clouds at 1800 feet AGL
scattered clouds at 10000 feet AGL
Weather: BR  (mist)

METAR text: VEGT 060130Z 00000KT 1500 BR FEW018 SCT100 16/15 Q1021 NOSIG
Conditions at: VEGT (GAUHATI (IN-AFB), IN) observed 0130 UTC 06 December 2019
Temperature: 16.0°C (61°F)
Dewpoint: 15.0°C (59°F) [RH = 94%]
Pressure (altimeter): 30.15 inches Hg (1021.0 mb)
Winds: calm
Visibility: 0.93 miles (1.50 km)
Ceiling: at least 12,000 feet AGL
Clouds: few clouds at 1800 feet AGL
scattered clouds at 10000 feet AGL
Weather: BR  (mist)

METAR text: VEGT 060100Z 00000KT 1500 BR FEW020 15/14 Q1021 NOSIG
Conditions at: VEGT (GAUHATI (IN-AFB), IN) observed 0100 UTC 06 December 2019
Temperature: 15.0°C (59°F)
Dewpoint: 14.0°C (57°F) [RH = 94%]
Pressure (altimeter): 30.15 inches Hg (1021.0 mb)
Winds: calm
Visibility: 0.93 miles (1.50 km)
Ceiling: at least 12,000 feet AGL
Clouds: few clouds at 2000 feet AGL
Weather: BR  (mist)

METAR text: VEGT 060030Z 00000KT 1500 BR FEW020 15/14 Q1020 NOSIG
Conditions at: VEGT (GAUHATI (IN-AFB), IN) observed 0030 UTC 06 December 2019
Temperature: 15.0°C (59°F)
Dewpoint: 14.0°C (57°F) [RH = 94%]
Pressure (altimeter): 30.12 inches Hg (1020.0 mb)
Winds: calm
Visibility: 0.93 miles (1.50 km)
Ceiling: at least 12,000 feet AGL
Clouds: few clouds at 2000 feet AGL
Weather: BR  (mist)

METAR text: VEGT 050000Z 00000KT 1500 BR FEW020 15/14 Q1020 NOSIG
Conditions at: VEGT (GAUHATI (IN-AFB), IN) observed 0000 UTC 06 December 2019
Temperature: 15.0°C (59°F)
Dewpoint: 14.0°C (57°F) [RH = 94%]
Pressure (altimeter): 30.12 inches Hg (1020.0 mb)
Winds: calm
Visibility: 0.93 miles (1.50 km)
Ceiling: at least 12,000 feet AGL
Clouds: few clouds at 2000 feet AGL
Weather: BR  (mist)

METAR text: VEGT 052330Z 00000KT 1500 BR FEW020 15/14 Q1019 NOSIG
Conditions at: VEGT (GAUHATI (IN-AFB), IN) observed 2330 UTC 05 December 2019
Temperature: 15.0°C (59°F)
Dewpoint: 14.0°C (57°F) [RH = 94%]
Pressure (altimeter): 30.09 inches Hg (1019.0 mb)
Winds: calm
Visibility: 0.93 miles (1.50 km)
Ceiling: at least 12,000 feet AGL
Clouds: few clouds at 2000 feet AGL
Weather: BR  (mist)

METAR text: VEGT 052300Z 00000KT 2000 BR FEW020 16/16 Q1019 TEMPO 1000 MIFG
Conditions at: VEGT (GAUHATI (IN-AFB), IN) observed 2300 UTC 05 December 2019
Temperature: 16.0°C (61°F)
Dewpoint: 16.0°C (61°F) [RH = 100%]
Pressure (altimeter): 30.09 inches Hg (1019.0 mb)
Winds: calm
Visibility: 1.24 miles (2.00 km)
Ceiling: at least 12,000 feet AGL
Clouds: few clouds at 2000 feet AGL
Weather: BR  (mist)

METAR text: VEGT 052230Z 00000KT 2000 BR FEW020 17/16 Q1019 NOSIG
Conditions at: VEGT (GAUHATI (IN-AFB), IN) observed 2230 UTC 05 December 2019
Temperature: 17.0°C (63°F)
Dewpoint: 16.0°C (61°F) [RH = 94%]
Pressure (altimeter): 30.09 inches Hg (1019.0 mb)
Winds: calm
Visibility: 1.24 miles (2.00 km)
Ceiling: at least 12,000 feet AGL
Clouds: few clouds at 2000 feet AGL
Weather: BR  (mist)

METAR text: VEGT 052200Z 00000KT 2000 BR FEW020 18/17 Q1019 NOSIG
Conditions at: VEGT (GAUHATI (IN-AFB), IN) observed 2200 UTC 05 December 2019
Temperature: 18.0°C (64°F)
Dewpoint: 17.0°C (63°F) [RH = 94%]
Pressure (altimeter): 30.09 inches Hg (1019.0 mb)
Winds: calm
Visibility: 1.24 miles (2.00 km)
Ceiling: at least 12,000 feet AGL
Clouds: few clouds at 2000 feet AGL
Weather: BR  (mist)

METAR text: VEGT 052130Z 00000KT 2500 BR FEW020 18/17 Q1019 NOSIG
Conditions at: VEGT (GAUHATI (IN-AFB), IN) observed 2130 UTC 05 December 2019
Temperature: 18.0°C (64°F)
Dewpoint: 17.0°C (63°F) [RH = 94%]
Pressure (altimeter): 30.09 inches Hg (1019.0 mb)
Winds: calm
Visibility: 1.55 miles (2.49 km)
Ceiling: at least 12,000 feet AGL
Clouds: few clouds at 2000 feet AGL
Weather: BR  (mist)

METAR text: VEGT 052100Z 00000KT 2500 BR FEW020 18/17 Q1019 NOSIG
Conditions at: VEGT (GAUHATI (IN-AFB), IN) observed 2100 UTC 05 December 2019
Temperature: 18.0°C (64°F)
Dewpoint: 17.0°C (63°F) [RH = 94%]
Pressure (altimeter): 30.09 inches Hg (1019.0 mb)
Winds: calm
Visibility: 1.55 miles (2.49 km)
Ceiling: at least 12,000 feet AGL
Clouds: few clouds at 2000 feet AGL
Weather: BR  (mist)

METAR text: VEGT 052030Z 00000KT 2500 BR FEW020 18/17 Q1019 NOSIG
Conditions at: VEGT (GAUHATI (IN-AFB), IN) observed 2030 UTC 05 December 2019
Temperature: 18.0°C (64°F)
Dewpoint: 17.0°C (63°F) [RH = 94%]
Pressure (altimeter): 30.09 inches Hg (1019.0 mb)
Winds: calm
Visibility: 1.55 miles (2.49 km)
Ceiling: at least 12,000 feet AGL
Clouds: few clouds at 2000 feet AGL
Weather: BR  (mist)

METAR text: VEGT 052000Z 00000KT 2500 BR FEW020 19/17 Q1019 NOSIG
Conditions at: VEGT (GAUHATI (IN-AFB), IN) observed 2000 UTC 05 December 2019
Temperature: 19.0°C (66°F)
Dewpoint: 17.0°C (63°F) [RH = 88%]
Pressure (altimeter): 30.09 inches Hg (1019.0 mb)
Winds: calm
Visibility: 1.55 miles (2.49 km)
Ceiling: at least 12,000 feet AGL
Clouds: few clouds at 2000 feet AGL
Weather: BR  (mist)

METAR text: VEGT 051930Z 00000KT 2500 BR FEW020 19/17 Q1019 NOSIG
Conditions at: VEGT (GAUHATI (IN-AFB), IN) observed 1930 UTC 05 December 2019
Temperature: 19.0°C (66°F)
Dewpoint: 17.0°C (63°F) [RH = 88%]
Pressure (altimeter): 30.09 inches Hg (1019.0 mb)
Winds: calm
Visibility: 1.55 miles (2.49 km)
Ceiling: at least 12,000 feet AGL
Clouds: few clouds at 2000 feet AGL
Weather: BR  (mist)

METAR text: VEGT 051900Z 00000KT 3000 BR FEW020 19/17 Q1019 BECMG 2000 BR
Conditions at: VEGT (GAUHATI (IN-AFB), IN) observed 1900 UTC 05 December 2019
Temperature: 19.0°C (66°F)
Dewpoint: 17.0°C (63°F) [RH = 88%]
Pressure (altimeter): 30.09 inches Hg (1019.0 mb)
Winds: calm
Visibility: 1.86 miles (2.99 km)
Ceiling: at least 12,000 feet AGL
Clouds: few clouds at 2000 feet AGL
Weather: BR  (mist)

METAR text: VEGT 051830Z 00000KT 3000 BR FEW020 19/17 Q1019 NOSIG
Conditions at: VEGT (GAUHATI (IN-AFB), IN) observed 1830 UTC 05 December 2019
Temperature: 19.0°C (66°F)
Dewpoint: 17.0°C (63°F) [RH = 88%]
Pressure (altimeter): 30.09 inches Hg (1019.0 mb)
Winds: calm
Visibility: 1.86 miles (2.99 km)
Ceiling: at least 12,000 feet AGL
Clouds: few clouds at 2000 feet AGL
Weather: BR  (mist)

METAR text: VEGT 051800Z 00000KT 3000 BR FEW020 19/17 Q1019 NOSIG
Conditions at: VEGT (GAUHATI (IN-AFB), IN) observed 1800 UTC 05 December 2019
Temperature: 19.0°C (66°F)
Dewpoint: 17.0°C (63°F) [RH = 88%]
Pressure (altimeter): 30.09 inches Hg (1019.0 mb)
Winds: calm
Visibility: 1.86 miles (2.99 km)
Ceiling: at least 12,000 feet AGL
Clouds: few clouds at 2000 feet AGL
Weather: BR  (mist)

METAR text: VEGT 051730Z 00000KT 3000 BR FEW020 19/17 Q1020 NOSIG
Conditions at: VEGT (GAUHATI (IN-AFB), IN) observed 1730 UTC 05 December 2019
Temperature: 19.0°C (66°F)
Dewpoint: 17.0°C (63°F) [RH = 88%]
Pressure (altimeter): 30.12 inches Hg (1020.0 mb)
Winds: calm
Visibility: 1.86 miles (2.99 km)
Ceiling: at least 12,000 feet AGL
Clouds: few clouds at 2000 feet AGL
Weather: BR  (mist)

METAR text: VEGT 051700Z 00000KT 3000 BR FEW020 19/17 Q1020 NOSIG
Conditions at: VEGT (GAUHATI (IN-AFB), IN) observed 1700 UTC 05 December 2019
Temperature: 19.0°C (66°F)
Dewpoint: 17.0°C (63°F) [RH = 88%]
Pressure (altimeter): 30.12 inches Hg (1020.0 mb)
Winds: calm
Visibility: 1.86 miles (2.99 km)
Ceiling: at least 12,000 feet AGL
Clouds: few clouds at 2000 feet AGL
Weather: BR  (mist)

METAR text: VEGT 051630Z 00000KT 3000 BR FEW020 19/17 Q1020 NOSIG
Conditions at: VEGT (GAUHATI (IN-AFB), IN) observed 1630 UTC 05 December 2019
Temperature: 19.0°C (66°F)
Dewpoint: 17.0°C (63°F) [RH = 88%]
Pressure (altimeter): 30.12 inches Hg (1020.0 mb)
Winds: calm
Visibility: 1.86 miles (2.99 km)
Ceiling: at least 12,000 feet AGL
Clouds: few clouds at 2000 feet AGL
Weather: BR  (mist)

METAR text: VEGT 051600Z 00000KT 3000 BR FEW020 19/17 Q1020 NOSIG
Conditions at: VEGT (GAUHATI (IN-AFB), IN) observed 1600 UTC 05 December 2019
Temperature: 19.0°C (66°F)
Dewpoint: 17.0°C (63°F) [RH = 88%]
Pressure (altimeter): 30.12 inches Hg (1020.0 mb)
Winds: calm
Visibility: 1.86 miles (2.99 km)
Ceiling: at least 12,000 feet AGL
Clouds: few clouds at 2000 feet AGL
Weather: BR  (mist)

METAR text: VEGT 051530Z 00000KT 3000 BR FEW020 20/18 Q1020 NOSIG
Conditions at: VEGT (GAUHATI (IN-AFB), IN) observed 1530 UTC 05 December 2019
Temperature: 20.0°C (68°F)
Dewpoint: 18.0°C (64°F) [RH = 88%]
Pressure (altimeter): 30.12 inches Hg (1020.0 mb)
Winds: calm
Visibility: 1.86 miles (2.99 km)
Ceiling: at least 12,000 feet AGL
Clouds: few clouds at 2000 feet AGL
Weather: BR  (mist)

METAR text: VEGT 051500Z 00000KT 3000 BR FEW020 19/17 Q1020 NOSIG
Conditions at: VEGT (GAUHATI (IN-AFB), IN) observed 1500 UTC 05 December 2019
Temperature: 19.0°C (66°F)
Dewpoint: 17.0°C (63°F) [RH = 88%]
Pressure (altimeter): 30.12 inches Hg (1020.0 mb)
Winds: calm
Visibility: 1.86 miles (2.99 km)
Ceiling: at least 12,000 feet AGL
Clouds: few clouds at 2000 feet AGL
Weather: BR  (mist)

METAR text: VEGT 051430Z 00000KT 3000 BR FEW020 21/17 Q1019 NOSIG
Conditions at: VEGT (GAUHATI (IN-AFB), IN) observed 1430 UTC 05 December 2019
Temperature: 21.0°C (70°F)
Dewpoint: 17.0°C (63°F) [RH = 78%]
Pressure (altimeter): 30.09 inches Hg (1019.0 mb)
Winds: calm
Visibility: 1.86 miles (2.99 km)
Ceiling: at least 12,000 feet AGL
Clouds: few clouds at 2000 feet AGL
Weather: BR  (mist)

METAR text: VEGT 051400Z 00000KT 3000 BR FEW020 21/17 Q1019 NOSIG
Conditions at: VEGT (GAUHATI (IN-AFB), IN) observed 1400 UTC 05 December 2019
Temperature: 21.0°C (70°F)
Dewpoint: 17.0°C (63°F) [RH = 78%]
Pressure (altimeter): 30.09 inches Hg (1019.0 mb)
Winds: calm
Visibility: 1.86 miles (2.99 km)
Ceiling: at least 12,000 feet AGL
Clouds: few clouds at 2000 feet AGL
Weather: BR  (mist)

METAR text: VEGT 051330Z 00000KT 3000 BR FEW100 21/17 Q1019 NOSIG
Conditions at: VEGT (GAUHATI (IN-AFB), IN) observed 1330 UTC 05 December 2019
Temperature: 21.0°C (70°F)
Dewpoint: 17.0°C (63°F) [RH = 78%]
Pressure (altimeter): 30.09 inches Hg (1019.0 mb)
Winds: calm
Visibility: 1.86 miles (2.99 km)
Ceiling: at least 12,000 feet AGL
Clouds: few clouds at 10000 feet AGL
Weather: BR  (mist)

METAR text: VEGT 051300Z 00000KT 3000 BR FEW100 22/17 Q1019 NOSIG
Conditions at: VEGT (GAUHATI (IN-AFB), IN) observed 1300 UTC 05 December 2019
Temperature: 22.0°C (72°F)
Dewpoint: 17.0°C (63°F) [RH = 73%]
Pressure (altimeter): 30.09 inches Hg (1019.0 mb)
Winds: calm
Visibility: 1.86 miles (2.99 km)
Ceiling: at least 12,000 feet AGL
Clouds: few clouds at 10000 feet AGL
Weather: BR  (mist)

METAR text: VEGT 051230Z 00000KT 3000 HZ FEW100 22/17 Q1019 NOSIG
Conditions at: VEGT (GAUHATI (IN-AFB), IN) observed 1230 UTC 05 December 2019
Temperature: 22.0°C (72°F)
Dewpoint: 17.0°C (63°F) [RH = 73%]
Pressure (altimeter): 30.09 inches Hg (1019.0 mb)
Winds: calm
Visibility: 1.86 miles (2.99 km)
Ceiling: at least 12,000 feet AGL
Clouds: few clouds at 10000 feet AGL
Weather: HZ  (haze)

METAR text: VEGT 051200Z 06004KT 3500 HZ FEW100 23/17 Q1018 NOSIG
Conditions at: VEGT (GAUHATI (IN-AFB), IN) observed 1200 UTC 05 December 2019
Temperature: 23.0°C (73°F)
Dewpoint: 17.0°C (63°F) [RH = 69%]
Pressure (altimeter): 30.06 inches Hg (1018.0 mb)
Winds: from the ENE (60 degrees) at 5 MPH (4 knots; 2.1 m/s)
Visibility: 2.17 miles (3.49 km)
Ceiling: at least 12,000 feet AGL
Clouds: few clouds at 10000 feet AGL
Weather: HZ  (haze)

METAR text: VEGT 051130Z 01005KT 4000 HZ FEW100 23/17 Q1018 NOSIG
Conditions at: VEGT (GAUHATI (IN-AFB), IN) observed 1130 UTC 05 December 2019
Temperature: 23.0°C (73°F)
Dewpoint: 17.0°C (63°F) [RH = 69%]
Pressure (altimeter): 30.06 inches Hg (1018.0 mb)
Winds: from the N (10 degrees) at 6 MPH (5 knots; 2.6 m/s)
Visibility: 2.49 miles (4.01 km)
Ceiling: at least 12,000 feet AGL
Clouds: few clouds at 10000 feet AGL
Weather: HZ  (haze)

METAR text: VEGT 051100Z 01006KT 4500 HZ FEW100 24/17 Q1018 BECMG 3000 BR
Conditions at: VEGT (GAUHATI (IN-AFB), IN) observed 1100 UTC 05 December 2019
Temperature: 24.0°C (75°F)
Dewpoint: 17.0°C (63°F) [RH = 65%]
Pressure (altimeter): 30.06 inches Hg (1018.0 mb)
Winds: from the N (10 degrees) at 7 MPH (6 knots; 3.1 m/s)
Visibility: 2.80 miles (4.51 km)
Ceiling: at least 12,000 feet AGL
Clouds: few clouds at 10000 feet AGL
Weather: HZ  (haze)

METAR text: VEGT 051030Z 01006KT 4500 HZ FEW100 26/17 Q1017 NOSIG
Conditions at: VEGT (GAUHATI (IN-AFB), IN) observed 1030 UTC 05 December 2019
Temperature: 26.0°C (79°F)
Dewpoint: 17.0°C (63°F) [RH = 58%]
Pressure (altimeter): 30.03 inches Hg (1017.0 mb)
Winds: from the N (10 degrees) at 7 MPH (6 knots; 3.1 m/s)
Visibility: 2.80 miles (4.51 km)
Ceiling: at least 12,000 feet AGL
Clouds: few clouds at 10000 feet AGL
Weather: HZ  (haze)

METAR text: VEGT 051000Z 01008KT 4500 HZ FEW100 26/17 Q1017 NOSIG
Conditions at: VEGT (GAUHATI (IN-AFB), IN) observed 1000 UTC 05 December 2019
Temperature: 26.0°C (79°F)
Dewpoint: 17.0°C (63°F) [RH = 58%]
Pressure (altimeter): 30.03 inches Hg (1017.0 mb)
Winds: from the N (10 degrees) at 9 MPH (8 knots; 4.1 m/s)
Visibility: 2.80 miles (4.51 km)
Ceiling: at least 12,000 feet AGL
Clouds: few clouds at 10000 feet AGL
Weather: HZ  (haze)

METAR text: VEGT 050930Z 02008KT 4500 HZ FEW100 27/17 Q1017 NOSIG
Conditions at: VEGT (GAUHATI (IN-AFB), IN) observed 0930 UTC 05 December 2019
Temperature: 27.0°C (81°F)
Dewpoint: 17.0°C (63°F) [RH = 54%]
Pressure (altimeter): 30.03 inches Hg (1017.0 mb)
Winds: from the NNE (20 degrees) at 9 MPH (8 knots; 4.1 m/s)
Visibility: 2.80 miles (4.51 km)
Ceiling: at least 12,000 feet AGL
Clouds: few clouds at 10000 feet AGL
Weather: HZ  (haze)

Forecast for: VEGT (GAUHATI (IN-AFB), IN)
Text: TAF VEGT 061700Z 0618/0703 00000KT 2500 BR FEW018 SCT100
Forecast period: 1800 to 2100 UTC 06 December 2019
Forecast type: FROM: standard forecast or significant change
Winds: calm
Visibility: 1.55 miles (2.49 km)
Ceiling: at least 12,000 feet AGL
Clouds: few clouds at 1800 feet AGL
scattered clouds at 10000 feet AGL
Weather: BR  (mist)
Text: BECMG 0621/0623 1500 BR FEW010 SCT018 BKN100
Forecast period: 2100 UTC 06 December 2019 to 0300 UTC 07 December 2019
Forecast type: BECOMING: Conditions expected to become as follows by 2300 UTC 06 December 2019
Winds: calm
Visibility: 0.93 miles (1.50 km)
Ceiling: 10000 feet AGL
Clouds: few clouds at 1000 feet AGL
scattered clouds at 1800 feet AGL
broken clouds at 10000 feet AGL
Weather: BR  (mist)
Text: TEMPO 0701/0702 1000 MIFG
Forecast period: 0100 to 0200 UTC 07 December 2019
Forecast type: TEMPORARY: The following changes expected for less than half the time period
Visibility: 0.62 miles (1.00 km)
Ceiling: unknown
Clouds: missing
Weather: MIFG  (shallow fog)